createdAt,value
2017-06-11T00:22:51.820Z,15.72
2017-06-11T00:23:32.357Z,15.67
2017-06-11T00:24:14.975Z,15.75
2017-06-11T00:25:02.379Z,15.65
2017-06-11T00:25:43.034Z,15.73
2017-06-11T00:26:24.602Z,15.72
2017-06-11T00:27:05.252Z,15.64
2017-06-11T00:27:45.811Z,15.73
2017-06-11T00:28:38.332Z,15.72
2017-06-11T00:29:23.813Z,15.67
2017-06-11T00:30:06.401Z,15.67
2017-06-11T00:30:46.949Z,15.67
2017-06-11T00:31:28.526Z,15.7
2017-06-11T00:32:19.824Z,15.64
2017-06-11T00:33:02.425Z,15.65
2017-06-11T00:33:42.972Z,15.64
2017-06-11T00:34:23.528Z,15.67
2017-06-11T00:35:08.897Z,15.67
2017-06-11T00:35:56.340Z,15.65
2017-06-11T00:36:36.970Z,15.7
2017-06-11T00:37:18.528Z,15.64
2017-06-11T00:37:59.083Z,15.67
2017-06-11T00:38:56.320Z,15.61
2017-06-11T01:16:16.051Z,15.29
2017-06-11T01:16:56.568Z,15.29
2017-06-11T01:17:37.114Z,15.27
2017-06-11T01:18:24.641Z,15.29
2017-06-11T01:19:07.215Z,15.25
2017-06-11T01:19:47.748Z,15.33
2017-06-11T01:20:35.193Z,15.25
2017-06-11T01:21:16.856Z,15.28
2017-06-11T01:21:57.384Z,15.25
2017-06-11T01:22:38.008Z,15.31
2017-06-11T01:23:18.533Z,15.27
2017-06-11T01:24:01.114Z,15.28
2017-06-11T01:24:43.732Z,15.15
2017-06-11T01:25:30.224Z,15.21
2017-06-11T01:26:21.617Z,15.27
2017-06-11T01:27:03.240Z,15.21
2017-06-11T01:27:43.829Z,15.19
2017-06-11T01:28:24.355Z,15.18
2017-06-11T01:29:04.956Z,15.21
2017-06-11T01:29:56.505Z,15.11
2017-06-11T01:30:37.092Z,15.14
2017-06-11T01:31:17.618Z,15.18
2017-06-11T01:32:09.173Z,15.15
2017-06-11T01:32:55.650Z,15.1
2017-06-11T01:33:37.217Z,15.11
2017-06-11T01:34:17.779Z,15.11
2017-06-11T01:35:00.393Z,15.18
2017-06-11T01:35:41.947Z,15.25
2017-06-11T01:36:23.521Z,15.19
2017-06-11T01:37:04.086Z,15.11
2017-06-11T01:37:46.684Z,15.22
2017-06-11T01:38:27.364Z,15.14
2017-06-11T01:39:07.975Z,15.07
2017-06-11T01:39:48.533Z,15.07
2017-06-11T01:40:40.662Z,15.21
2017-06-11T01:41:23.277Z,15.1
2017-06-11T01:42:04.818Z,15.14
2017-06-11T01:42:46.405Z,15.17
2017-06-11T01:43:27.997Z,15.21
2017-06-11T01:44:08.637Z,15.1
2017-06-11T01:44:51.233Z,15.14
2017-06-11T01:45:36.692Z,15.19
2017-06-11T01:46:19.299Z,15.07
2017-06-11T01:46:59.857Z,15.07
2017-06-11T01:47:53.380Z,15.11
2017-06-11T01:48:33.918Z,15.1
2017-06-11T01:49:20.139Z,15.19
2017-06-11T01:50:05.376Z,15.1
2017-06-11T01:50:45.879Z,15.07
2017-06-11T01:51:27.421Z,15.14
2017-06-11T01:52:08.973Z,15.1
2017-06-11T01:52:49.502Z,15.1
2017-06-11T02:23:43.867Z,14.86
2017-06-11T02:24:24.464Z,14.72
2017-06-11T02:25:06.021Z,14.78
2017-06-11T02:25:46.551Z,14.73
2017-06-11T02:26:27.096Z,14.79
2017-06-11T02:27:13.324Z,14.77
2017-06-11T02:27:53.856Z,14.79
2017-06-11T02:28:36.479Z,14.77
2017-06-11T02:29:19.050Z,14.82
2017-06-11T02:29:59.574Z,14.7
2017-06-11T02:30:40.180Z,14.78
2017-06-11T02:31:21.723Z,14.84
2017-06-11T02:32:02.253Z,14.79
2017-06-11T02:32:42.847Z,14.79
2017-06-11T02:33:23.399Z,14.79
2017-06-11T02:34:08.864Z,14.69
2017-06-11T02:34:50.438Z,14.79
2017-06-11T02:35:32.011Z,14.79
2017-06-11T02:36:19.322Z,14.81
2017-06-11T03:01:10.256Z,14.59
2017-06-11T03:01:50.813Z,14.63
2017-06-11T03:02:31.358Z,14.62
2017-06-11T03:03:13.983Z,14.66
2017-06-11T03:03:55.558Z,14.6
2017-06-11T03:04:36.107Z,14.63
2017-06-11T03:05:18.695Z,14.6
2017-06-11T03:06:00.272Z,14.66
2017-06-11T03:06:42.884Z,14.62
2017-06-11T03:07:24.455Z,14.68
2017-06-11T03:08:05.720Z,14.62
2017-06-11T03:08:48.309Z,14.58
2017-06-11T03:09:30.916Z,14.63
2017-06-11T03:10:13.511Z,14.58
2017-06-11T03:10:56.128Z,14.62
2017-06-11T03:11:43.543Z,14.63
2017-06-11T03:12:25.185Z,14.58
2017-06-11T03:13:05.706Z,14.62
2017-06-11T03:13:46.313Z,14.63
2017-06-11T03:14:27.924Z,14.65
2017-06-11T03:15:09.540Z,14.55
2017-06-11T03:15:50.060Z,14.65
2017-06-11T03:16:30.704Z,14.59
2017-06-11T03:17:12.277Z,14.55
2017-06-11T03:17:52.870Z,14.59
2017-06-11T03:18:33.435Z,14.62
2017-06-11T03:19:14.018Z,14.6
2017-06-11T03:19:54.547Z,14.63
2017-06-11T03:20:37.146Z,14.54
2017-06-11T03:21:19.739Z,14.59
2017-06-11T03:22:06.127Z,14.59
2017-06-11T03:22:57.635Z,14.6
2017-06-11T03:23:39.195Z,14.65
2017-06-11T03:24:19.753Z,14.65
2017-06-11T03:25:00.294Z,14.6
2017-06-11T03:25:40.862Z,14.59
2017-06-11T03:26:21.412Z,14.6
2017-06-11T03:27:02.992Z,14.58
2017-06-11T03:27:43.665Z,14.54
2017-06-11T03:28:25.207Z,14.63
2017-06-11T03:29:06.173Z,14.6
2017-06-11T03:29:52.659Z,14.62
2017-06-11T03:30:33.198Z,14.65
2017-06-11T03:31:14.792Z,14.65
2017-06-11T03:31:56.367Z,14.65
2017-06-11T03:32:43.850Z,14.73
2017-06-11T03:33:24.382Z,14.66
2017-06-11T03:34:05.979Z,14.72
2017-06-11T03:34:46.495Z,14.84
2017-06-11T03:35:28.136Z,14.77
2017-06-11T03:36:08.714Z,14.73
2017-06-11T03:36:54.840Z,14.69
2017-06-11T03:37:36.415Z,14.7
2017-06-11T03:38:22.801Z,14.72
2017-06-11T03:39:09.291Z,14.73
2017-06-11T03:39:49.842Z,14.78
2017-06-11T03:40:36.331Z,14.73
2017-06-11T03:41:18.928Z,14.81
2017-06-11T03:42:01.519Z,14.77
2017-06-11T03:42:42.040Z,14.73
2017-06-11T03:43:33.096Z,14.77
2017-06-11T03:44:14.671Z,14.88
2017-06-11T03:45:06.178Z,14.84
2017-06-11T03:45:47.002Z,14.79
2017-06-11T03:46:27.625Z,14.85
2017-06-11T03:47:08.154Z,14.84
2017-06-11T03:47:55.313Z,14.85
2017-06-11T03:48:35.832Z,14.85
2017-06-11T03:49:18.471Z,14.85
2017-06-11T03:49:59.007Z,14.92
2017-06-11T03:50:39.590Z,14.86
2017-06-11T03:51:20.220Z,14.91
2017-06-11T03:52:00.744Z,14.94
2017-06-11T03:52:47.196Z,15
2017-06-11T03:53:29.822Z,14.92
2017-06-11T03:54:12.356Z,14.97
2017-06-11T03:54:52.882Z,14.92
2017-06-11T03:55:33.512Z,15.03
2017-06-11T03:56:24.946Z,15.07
2017-06-11T03:57:05.442Z,15.07
2017-06-11T03:57:47.013Z,15.09
2017-06-11T03:58:27.638Z,15.11
2017-06-11T03:59:08.162Z,15.19
2017-06-11T03:59:50.713Z,15.21
2017-06-11T04:00:32.361Z,15.28
2017-06-11T04:01:12.886Z,15.29
2017-06-11T04:01:58.197Z,15.28
2017-06-11T04:02:39.782Z,15.37
2017-06-11T04:03:22.375Z,15.35
2017-06-11T04:04:04.956Z,15.43
2017-06-11T04:04:45.464Z,15.42
2017-06-11T04:05:32.630Z,15.54
2017-06-11T04:06:15.275Z,15.57
2017-06-11T04:07:00.689Z,15.52
2017-06-11T04:07:42.265Z,15.68
2017-06-11T04:08:27.641Z,15.65
2017-06-11T04:09:13.339Z,15.7
2017-06-11T04:09:58.662Z,15.82
2017-06-11T04:10:40.301Z,15.76
2017-06-11T04:11:22.876Z,15.8
2017-06-11T04:12:10.188Z,15.84
2017-06-11T04:12:51.789Z,15.97
2017-06-11T04:13:32.319Z,16
2017-06-11T04:14:13.929Z,15.97
2017-06-11T04:14:54.548Z,15.98
2017-06-11T04:15:36.139Z,16.04
2017-06-11T04:16:16.787Z,16.15
2017-06-11T04:17:08.226Z,16.12
2017-06-11T04:17:48.776Z,16.15
2017-06-11T04:18:32.445Z,16.17
2017-06-11T04:19:12.972Z,16.23
2017-06-11T04:19:54.593Z,16.28
2017-06-11T04:20:51.003Z,16.39
2017-06-11T04:21:31.542Z,16.36
2017-06-11T04:22:12.093Z,16.43
2017-06-11T04:22:52.639Z,16.41
2017-06-11T04:23:33.296Z,16.53
2017-06-11T04:24:13.847Z,16.49
2017-06-11T04:24:55.422Z,16.5
2017-06-11T04:25:36.993Z,16.58
2017-06-11T04:26:18.567Z,16.58
2017-06-11T04:26:59.474Z,16.66
2017-06-11T04:27:40.103Z,16.74
2017-06-11T04:28:20.698Z,16.83
2017-06-11T04:29:01.386Z,16.81
2017-06-11T04:29:41.907Z,16.93
2017-06-11T04:30:27.120Z,16.89
2017-06-11T04:31:12.477Z,16.94
2017-06-11T04:31:53.213Z,17.01
2017-06-11T04:32:33.928Z,17.04
2017-06-11T04:33:25.186Z,16.93
2017-06-11T04:34:05.770Z,17.04
2017-06-11T04:34:47.393Z,17.04
2017-06-11T04:35:27.944Z,17.11
2017-06-11T04:36:08.502Z,17.12
2017-06-11T04:36:50.309Z,17.15
2017-06-11T04:37:30.847Z,17.29
2017-06-11T04:38:13.467Z,17.26
2017-06-11T04:38:54.285Z,17.36
2017-06-11T04:39:34.811Z,17.44
2017-06-11T04:47:22.437Z,17.8
2017-06-11T04:48:02.962Z,17.79
2017-06-11T04:48:44.536Z,17.87
2017-06-11T04:49:26.163Z,17.92
2017-06-11T04:50:07.785Z,17.86
2017-06-11T04:50:48.293Z,17.98
2017-06-11T04:51:34.523Z,17.98
2017-06-11T04:52:15.068Z,18.04
2017-06-11T04:52:55.575Z,18.16
2017-06-11T04:53:36.172Z,18.15
2017-06-11T04:54:16.811Z,18.23
2017-06-11T04:54:57.355Z,18.35
2017-06-11T04:55:40.073Z,18.4
2017-06-11T04:56:20.710Z,18.5
2017-06-11T04:57:01.279Z,18.62
2017-06-11T04:57:41.872Z,18.66
2017-06-11T04:58:23.505Z,18.73
2017-06-11T04:59:04.075Z,18.74
2017-06-11T04:59:45.637Z,18.92
2017-06-11T05:00:27.258Z,18.95
2017-06-11T05:01:09.862Z,19.09
2017-06-11T05:01:50.463Z,19.15
2017-06-11T05:02:31.062Z,19.31
2017-06-11T05:03:12.631Z,19.27
2017-06-11T05:03:53.182Z,19.39
2017-06-11T05:04:34.757Z,19.37
2017-06-11T05:05:15.409Z,19.45
2017-06-11T05:05:56.994Z,19.52
2017-06-11T05:06:39.575Z,19.48
2017-06-11T05:07:20.177Z,19.52
2017-06-11T05:08:00.719Z,19.52
2017-06-11T05:08:42.327Z,19.52
2017-06-11T05:09:22.911Z,19.52
2017-06-11T05:10:04.528Z,19.54
2017-06-11T05:10:45.045Z,19.51
2017-06-11T05:11:31.555Z,19.4
2017-06-11T05:12:13.221Z,19.44
2017-06-11T05:12:53.826Z,19.45
2017-06-11T05:13:38.981Z,19.44
2017-06-11T05:14:25.766Z,19.48
2017-06-11T05:15:06.658Z,19.44
2017-06-11T05:15:47.330Z,19.47
2017-06-11T05:16:27.955Z,19.4
2017-06-11T05:17:13.515Z,19.34
2017-06-11T05:18:00.040Z,19.37
2017-06-11T05:27:03.189Z,19.19
2017-06-11T05:27:44.800Z,19.18
2017-06-11T05:28:25.345Z,19.19
2017-06-11T05:29:06.018Z,19.18
2017-06-11T05:29:46.652Z,19.15
2017-06-11T05:30:28.224Z,19.22
2017-06-11T05:31:08.819Z,19.21
2017-06-11T05:31:51.417Z,19.18
2017-06-11T05:32:38.951Z,19.19
2017-06-11T05:33:21.538Z,19.29
2017-06-11T05:34:02.080Z,19.33
2017-06-11T05:34:44.722Z,19.4
2017-06-11T05:35:25.279Z,19.49
2017-06-11T05:36:05.831Z,19.44
2017-06-11T05:36:46.382Z,19.49
2017-06-11T05:37:27.957Z,19.52
2017-06-11T05:38:10.555Z,19.58
2017-06-11T05:38:51.161Z,19.58
2017-06-11T05:39:31.684Z,19.74
2017-06-11T05:40:17.142Z,19.82
2017-06-11T05:40:57.690Z,19.84
2017-06-11T05:41:38.334Z,19.82
2017-06-11T05:42:18.894Z,19.91
2017-06-11T05:42:59.505Z,19.88
2017-06-11T05:43:40.087Z,19.89
2017-06-11T05:44:20.635Z,19.88
2017-06-11T05:45:01.308Z,19.81
2017-06-11T05:45:46.567Z,19.86
2017-06-11T05:46:27.119Z,19.86
2017-06-11T05:47:18.631Z,19.88
2017-06-11T05:47:59.176Z,19.84
2017-06-11T05:48:39.683Z,19.85
2017-06-11T05:49:20.374Z,19.94
2017-06-11T05:50:00.934Z,19.85
2017-06-11T05:50:47.101Z,19.85
2017-06-11T05:51:29.692Z,19.91
2017-06-11T05:52:11.273Z,19.88
2017-06-11T05:52:51.900Z,19.84
2017-06-11T05:53:47.316Z,20
2017-06-11T05:54:27.842Z,19.89
2017-06-11T05:55:14.058Z,19.94
2017-06-11T05:55:54.678Z,19.89
2017-06-11T05:56:40.782Z,19.92
2017-06-11T05:57:21.310Z,19.94
2017-06-11T05:58:01.891Z,19.94
2017-06-11T05:58:59.387Z,19.95
2017-06-11T05:59:41.006Z,19.89
2017-06-11T06:00:21.560Z,19.95
2017-06-11T06:01:02.134Z,19.92
2017-06-11T06:01:43.744Z,19.95
2017-06-11T06:02:24.338Z,19.91
2017-06-11T06:03:04.865Z,19.86
2017-06-11T06:03:46.480Z,19.86
2017-06-11T06:04:27.068Z,19.84
2017-06-11T06:05:07.680Z,19.85
2017-06-11T06:05:48.190Z,19.84
2017-06-11T06:06:29.807Z,19.84
2017-06-11T06:07:12.447Z,19.81
2017-06-11T06:07:54.064Z,19.85
2017-06-11T06:08:34.585Z,19.77
2017-06-11T06:09:15.187Z,19.88
2017-06-11T06:09:56.784Z,19.85
2017-06-11T06:10:38.344Z,19.89
2017-06-11T06:11:19.917Z,19.99
2017-06-11T06:12:02.520Z,19.91
2017-06-11T06:12:43.145Z,19.92
2017-06-11T06:13:23.660Z,20.09
2017-06-11T06:14:09.077Z,20.06
2017-06-11T06:14:50.731Z,20.07
2017-06-11T06:15:31.250Z,20.16
2017-06-11T06:16:12.889Z,20.18
2017-06-11T06:16:53.412Z,20.13
2017-06-11T06:17:38.769Z,20.24
2017-06-11T06:18:19.420Z,20.25
2017-06-11T06:19:00.084Z,20.29
2017-06-11T06:19:47.287Z,20.31
2017-06-11T06:20:28.863Z,20.28
2017-06-11T06:21:20.268Z,20.39
2017-06-11T06:22:01.834Z,20.39
2017-06-11T06:22:42.366Z,20.41
2017-06-11T06:23:27.564Z,20.48
2017-06-11T06:24:14.214Z,20.52
2017-06-11T06:24:54.855Z,20.47
2017-06-11T06:25:51.129Z,20.48
2017-06-11T06:26:36.612Z,20.44
2017-06-11T06:27:17.144Z,20.6
2017-06-11T06:27:58.770Z,20.59
2017-06-11T06:28:39.361Z,20.67
2017-06-11T06:29:19.895Z,20.75
2017-06-11T06:30:01.495Z,20.74
2017-06-11T06:30:43.121Z,20.77
2017-06-11T06:31:23.709Z,20.82
2017-06-11T06:32:04.237Z,20.92
2017-06-11T06:32:44.865Z,21.06
2017-06-11T06:33:25.436Z,21.12
2017-06-11T06:34:11.754Z,21.2
2017-06-11T06:34:52.301Z,21.42
2017-06-11T06:35:43.633Z,21.48
2017-06-11T06:36:25.241Z,21.52
2017-06-11T06:37:06.866Z,21.58
2017-06-11T06:37:48.432Z,21.6
2017-06-11T06:38:31.134Z,21.7
2017-06-11T06:39:12.706Z,21.72
2017-06-11T06:39:54.283Z,21.75
2017-06-11T06:40:34.938Z,21.76
2017-06-11T06:41:16.516Z,21.85
2017-06-11T06:41:57.063Z,21.95
2017-06-11T06:42:37.591Z,22.04
2017-06-11T06:43:19.287Z,22.06
2017-06-11T06:43:59.904Z,22.06
2017-06-11T06:44:45.305Z,22.22
2017-06-11T06:45:25.838Z,22.26
2017-06-11T06:46:07.466Z,22.33
2017-06-11T06:46:48.043Z,22.38
2017-06-11T06:47:28.568Z,22.43
2017-06-11T06:48:14.116Z,22.55
2017-06-11T06:48:55.678Z,22.65
2017-06-11T06:49:36.202Z,22.62
2017-06-11T06:50:16.831Z,22.76
2017-06-11T06:51:02.346Z,22.83
2017-06-11T06:51:42.866Z,22.88
2017-06-11T06:52:25.422Z,22.94
2017-06-11T06:53:07.016Z,22.94
2017-06-11T06:53:49.574Z,23.03
2017-06-11T06:54:30.087Z,23.09
2017-06-11T06:55:17.655Z,23.36
2017-06-11T06:55:59.265Z,23.27
2017-06-11T06:56:41.910Z,23.36
2017-06-11T06:57:22.451Z,23.39
2017-06-11T06:58:03.129Z,23.39
2017-06-11T06:58:43.688Z,23.41
2017-06-11T06:59:25.705Z,23.37
2017-06-11T07:00:06.419Z,23.31
2017-06-11T07:00:49.074Z,23.23
2017-06-11T07:01:30.715Z,23.24
2017-06-11T07:02:11.298Z,23.2
2017-06-11T07:02:52.007Z,23.24
2017-06-11T07:03:32.635Z,23.15
2017-06-11T07:04:13.202Z,23.15
2017-06-11T07:04:58.673Z,23.2
2017-06-11T07:05:40.295Z,23.23
2017-06-11T07:06:21.905Z,23.23
2017-06-11T07:07:02.434Z,23.2
2017-06-11T07:07:43.028Z,23.28
2017-06-11T07:08:23.567Z,23.28
2017-06-11T07:09:06.247Z,23.36
2017-06-11T07:09:46.870Z,23.39
2017-06-11T07:10:27.484Z,23.43
2017-06-11T07:11:09.070Z,23.56
2017-06-11T07:11:50.670Z,23.55
2017-06-11T07:12:31.332Z,23.69
2017-06-11T07:13:11.916Z,23.62
2017-06-11T07:13:52.543Z,23.68
2017-06-11T07:14:33.142Z,23.73
2017-06-11T07:15:13.834Z,23.81
2017-06-11T07:15:54.413Z,23.84
2017-06-11T07:16:34.949Z,23.91
2017-06-11T07:17:16.545Z,23.96
2017-06-11T07:17:57.134Z,24.05
2017-06-11T07:18:37.728Z,24.11
2017-06-11T07:19:18.262Z,24.11
2017-06-11T07:19:58.883Z,24.13
2017-06-11T07:20:39.453Z,24.29
2017-06-11T07:21:20.035Z,24.3
2017-06-11T07:22:00.562Z,24.24
2017-06-11T07:22:41.155Z,24.28
2017-06-11T07:23:21.850Z,24.16
2017-06-11T07:24:03.464Z,24.17
2017-06-11T07:24:43.981Z,24.05
2017-06-11T07:25:24.610Z,24.03
2017-06-11T07:26:07.214Z,23.93
2017-06-11T07:26:47.816Z,23.86
2017-06-11T07:27:28.366Z,23.71
2017-06-11T07:28:08.977Z,23.78
2017-06-11T07:28:51.540Z,23.69
2017-06-11T07:29:32.189Z,23.62
2017-06-11T07:30:12.728Z,23.63
2017-06-11T07:30:53.300Z,23.62
2017-06-11T07:31:33.847Z,23.59
2017-06-11T07:32:20.134Z,23.59
2017-06-11T07:33:00.708Z,23.58
2017-06-11T07:33:41.312Z,23.55
2017-06-11T07:34:21.865Z,23.61
2017-06-11T07:35:02.499Z,23.65
2017-06-11T07:35:43.125Z,23.66
2017-06-11T07:36:25.761Z,23.65
2017-06-11T07:37:06.339Z,23.69
2017-06-11T07:37:47.864Z,23.68
2017-06-11T07:38:28.524Z,23.65
2017-06-11T07:39:09.106Z,23.66
2017-06-11T07:39:50.691Z,23.65
2017-06-11T07:40:31.393Z,23.74
2017-06-11T07:41:11.997Z,23.76
2017-06-11T07:41:52.928Z,23.71
2017-06-11T07:42:33.509Z,23.69
2017-06-11T07:43:14.052Z,23.77
2017-06-11T07:43:56.653Z,23.77
2017-06-11T07:44:38.249Z,23.74
2017-06-11T07:45:20.824Z,23.73
2017-06-11T07:46:02.411Z,23.73
2017-06-11T07:46:43.971Z,23.73
2017-06-11T07:47:26.590Z,23.76
2017-06-11T07:48:07.229Z,23.84
2017-06-11T07:48:48.804Z,23.86
2017-06-11T07:49:29.360Z,23.84
2017-06-11T07:50:10.020Z,23.92
2017-06-11T07:50:50.564Z,23.95
2017-06-11T07:51:31.231Z,23.92
2017-06-11T07:52:11.869Z,23.93
2017-06-11T07:52:52.458Z,23.84
2017-06-11T07:53:33.040Z,23.87
2017-06-11T07:54:13.588Z,23.8
2017-06-11T07:54:54.174Z,23.76
2017-06-11T07:55:34.754Z,23.71
2017-06-11T07:56:15.354Z,23.69
2017-06-11T07:56:55.876Z,23.69
2017-06-11T07:57:37.498Z,23.66
2017-06-11T07:58:18.092Z,23.55
2017-06-11T07:58:59.699Z,23.46
2017-06-11T07:59:40.214Z,23.48
2017-06-11T08:00:20.825Z,23.44
2017-06-11T08:01:01.353Z,23.39
2017-06-11T08:01:41.909Z,23.37
2017-06-11T08:02:22.430Z,23.34
2017-06-11T08:03:03.042Z,23.23
2017-06-11T08:03:43.585Z,23.2
2017-06-11T08:04:25.155Z,23.24
2017-06-11T08:05:05.707Z,23.2
2017-06-11T08:05:46.265Z,23.2
2017-06-11T08:06:27.973Z,23.08
2017-06-11T08:07:08.584Z,23.1
2017-06-11T08:07:49.148Z,23.08
2017-06-11T08:08:30.289Z,23.08
2017-06-11T08:09:10.806Z,23.02
2017-06-11T08:09:52.431Z,23.09
2017-06-11T08:10:33.060Z,23.08
2017-06-11T08:11:13.583Z,23.18
2017-06-11T08:11:55.256Z,23.08
2017-06-11T08:12:35.837Z,23.12
2017-06-11T08:13:16.369Z,23.13
2017-06-11T08:13:56.959Z,23.1
2017-06-11T08:14:37.562Z,23.15
2017-06-11T08:15:18.135Z,23.25
2017-06-11T08:15:58.659Z,23.25
2017-06-11T08:16:39.268Z,23.23
2017-06-11T08:17:20.885Z,23.31
2017-06-11T08:18:01.545Z,23.27
2017-06-11T08:18:43.096Z,23.28
2017-06-11T08:19:23.662Z,23.37
2017-06-11T08:20:04.374Z,23.31
2017-06-11T08:20:44.957Z,23.25
2017-06-11T08:21:25.516Z,23.28
2017-06-11T08:22:06.051Z,23.39
2017-06-11T08:22:46.713Z,23.44
2017-06-11T08:23:27.334Z,23.36
2017-06-11T08:24:07.880Z,23.46
2017-06-11T08:24:48.436Z,23.41
2017-06-11T08:25:29.989Z,23.44
2017-06-11T08:26:10.560Z,23.43
2017-06-11T08:26:51.219Z,23.5
2017-06-11T08:27:32.783Z,23.51
2017-06-11T08:28:13.332Z,23.58
2017-06-11T08:28:53.886Z,23.56
2017-06-11T08:29:34.538Z,23.55
2017-06-11T08:30:15.192Z,23.63
2017-06-11T08:30:55.844Z,23.62
2017-06-11T08:31:36.494Z,23.69
2017-06-11T08:32:17.048Z,23.66
2017-06-11T08:32:57.699Z,23.68
2017-06-11T08:33:39.271Z,23.65
2017-06-11T08:34:19.839Z,23.69
2017-06-11T08:35:02.423Z,23.71
2017-06-11T08:35:43.019Z,23.81
2017-06-11T08:36:23.680Z,23.86
2017-06-11T08:37:04.275Z,23.86
2017-06-11T08:37:44.919Z,23.84
2017-06-11T08:38:25.453Z,24.05
2017-06-11T08:39:06.046Z,24.1
2017-06-11T08:39:46.676Z,24.14
2017-06-11T08:40:27.210Z,24.23
2017-06-11T08:41:07.788Z,24.24
2017-06-11T08:41:48.437Z,24.38
2017-06-11T08:42:28.982Z,24.45
2017-06-11T08:43:09.536Z,24.58
2017-06-11T08:43:52.177Z,24.61
2017-06-11T08:44:32.784Z,24.77
2017-06-11T08:45:13.338Z,24.88
2017-06-11T08:45:53.907Z,24.93
2017-06-11T08:46:35.521Z,25.03
2017-06-11T08:47:16.113Z,25.07
2017-06-11T08:47:56.662Z,25.18
2017-06-11T08:48:37.211Z,25.18
2017-06-11T08:49:17.762Z,25.29
2017-06-11T08:49:58.318Z,25.26
2017-06-11T08:50:38.965Z,25.44
2017-06-11T08:51:21.558Z,25.47
2017-06-11T08:52:02.115Z,25.59
2017-06-11T08:52:42.611Z,25.54
2017-06-11T08:53:23.235Z,25.59
2017-06-11T08:54:05.862Z,25.66
2017-06-11T08:54:46.401Z,25.65
2017-06-11T08:55:26.935Z,25.68
2017-06-11T08:56:07.509Z,25.63
2017-06-11T08:56:48.104Z,25.68
2017-06-11T08:57:28.738Z,25.66
2017-06-11T08:58:09.275Z,25.7
2017-06-11T08:58:49.805Z,25.8
2017-06-11T08:59:30.973Z,25.77
2017-06-11T09:00:11.626Z,25.84
2017-06-11T09:00:52.179Z,25.98
2017-06-11T09:01:33.751Z,26.06
2017-06-11T09:02:14.304Z,26.05
2017-06-11T09:02:54.831Z,26.26
2017-06-11T09:03:35.408Z,26.31
2017-06-11T09:04:16.017Z,26.34
2017-06-11T09:04:56.611Z,26.36
2017-06-11T09:05:37.125Z,26.45
2017-06-11T09:06:17.746Z,26.53
2017-06-11T09:06:58.318Z,26.6
2017-06-11T09:07:39.531Z,26.66
2017-06-11T09:08:20.062Z,26.74
2017-06-11T09:09:00.660Z,26.83
2017-06-11T09:09:41.237Z,26.78
2017-06-11T09:10:21.841Z,26.95
2017-06-11T09:11:02.380Z,26.93
2017-06-11T09:11:42.967Z,27.02
2017-06-11T09:12:23.554Z,27.02
2017-06-11T09:13:04.246Z,27.02
2017-06-11T09:13:44.899Z,27.05
2017-06-11T09:14:26.270Z,27.03
2017-06-11T09:15:06.811Z,27.07
2017-06-11T09:15:47.366Z,27.21
2017-06-11T09:16:28.024Z,27.2
2017-06-11T09:17:08.671Z,27.21
2017-06-11T09:17:49.321Z,27.2
2017-06-11T09:18:29.871Z,27.33
2017-06-11T09:19:10.421Z,27.35
2017-06-11T09:19:50.973Z,27.51
2017-06-11T09:20:31.526Z,27.49
2017-06-11T09:21:12.071Z,27.55
2017-06-11T09:21:52.736Z,27.59
2017-06-11T09:22:33.286Z,27.7
2017-06-11T09:23:13.809Z,27.78
2017-06-11T09:23:54.516Z,27.93
2017-06-11T09:24:35.138Z,27.96
2017-06-11T09:25:15.739Z,28.11
2017-06-11T09:25:56.375Z,28.19
2017-06-11T09:26:36.995Z,28.33
2017-06-11T09:27:17.526Z,28.45
2017-06-11T09:27:58.096Z,28.37
2017-06-11T09:28:38.701Z,28.41
2017-06-11T09:29:19.301Z,28.41
2017-06-11T09:29:59.801Z,28.48
2017-06-11T09:30:41.114Z,28.41
2017-06-11T09:31:21.734Z,28.42
2017-06-11T09:32:02.321Z,28.38
2017-06-11T09:32:42.839Z,28.39
2017-06-11T09:33:23.457Z,28.38
2017-06-11T09:34:03.996Z,28.38
2017-06-11T09:34:44.542Z,28.33
2017-06-11T09:35:25.107Z,28.3
2017-06-11T09:36:05.642Z,28.29
2017-06-11T09:36:47.258Z,28.32
2017-06-11T09:37:27.758Z,28.35
2017-06-11T09:38:08.309Z,28.42
2017-06-11T09:38:48.866Z,28.39
2017-06-11T09:39:29.421Z,28.44
2017-06-11T09:40:09.961Z,28.44
2017-06-11T09:40:50.520Z,28.51
2017-06-11T09:41:31.083Z,28.63
2017-06-11T09:42:11.638Z,28.59
2017-06-11T09:42:52.274Z,28.56
2017-06-11T09:43:32.828Z,28.59
2017-06-11T09:44:13.477Z,28.66
2017-06-11T09:44:54.029Z,28.69
2017-06-11T09:45:35.606Z,28.64
2017-06-11T09:46:16.202Z,28.66
2017-06-11T09:46:56.808Z,28.74
2017-06-11T09:47:37.388Z,28.74
2017-06-11T09:48:18.950Z,28.81
2017-06-11T09:48:59.506Z,28.76
2017-06-11T09:49:40.138Z,28.78
2017-06-11T09:50:20.709Z,28.76
2017-06-11T09:51:01.336Z,28.72
2017-06-11T09:51:41.886Z,28.72
2017-06-11T09:52:22.556Z,28.7
2017-06-11T09:53:03.209Z,28.66
2017-06-11T09:53:43.843Z,28.67
2017-06-11T09:54:24.411Z,28.6
2017-06-11T09:55:04.951Z,28.66
2017-06-11T09:55:46.585Z,28.56
2017-06-11T09:56:27.083Z,28.67
2017-06-11T09:57:07.635Z,28.52
2017-06-11T09:57:48.177Z,28.54
2017-06-11T09:58:28.757Z,28.56
2017-06-11T09:59:09.379Z,28.57
2017-06-11T09:59:49.930Z,28.59
2017-06-11T10:00:30.479Z,28.66
2017-06-11T10:01:11.027Z,28.67
2017-06-11T10:01:51.691Z,28.76
2017-06-11T10:02:32.253Z,28.86
2017-06-11T10:03:12.795Z,28.91
2017-06-11T10:03:53.324Z,28.96
2017-06-11T10:04:33.894Z,29.02
2017-06-11T10:05:14.554Z,29.02
2017-06-11T10:05:56.923Z,29.05
2017-06-11T10:06:37.565Z,29.13
2017-06-11T10:07:19.164Z,29.16
2017-06-11T10:07:59.728Z,29.12
2017-06-11T10:08:40.280Z,29.27
2017-06-11T10:09:20.861Z,29.34
2017-06-11T10:10:01.563Z,29.44
2017-06-11T10:10:42.110Z,29.59
2017-06-11T10:11:22.688Z,29.56
2017-06-11T10:12:04.240Z,29.65
2017-06-11T10:12:44.786Z,29.72
2017-06-11T10:13:25.460Z,29.84
2017-06-11T10:14:06.093Z,29.91
2017-06-11T10:14:46.667Z,29.97
2017-06-11T10:15:27.167Z,30.02
2017-06-11T10:16:08.751Z,30.03
2017-06-11T10:16:49.325Z,29.98
2017-06-11T10:17:29.867Z,29.94
2017-06-11T10:18:11.468Z,30.02
2017-06-11T10:18:52.071Z,29.94
2017-06-11T10:19:32.656Z,30.05
2017-06-11T10:20:13.200Z,29.94
2017-06-11T10:20:53.774Z,30.02
2017-06-11T10:21:34.407Z,29.88
2017-06-11T10:22:16.079Z,30
2017-06-11T10:22:58.679Z,29.93
2017-06-11T10:23:39.227Z,29.97
2017-06-11T10:24:19.789Z,29.94
2017-06-11T10:25:00.356Z,30.02
2017-06-11T10:25:40.992Z,30
2017-06-11T10:26:21.524Z,30
2017-06-11T10:27:02.087Z,29.97
2017-06-11T10:27:42.636Z,29.97
2017-06-11T10:28:23.182Z,29.91
2017-06-11T10:29:03.736Z,29.93
2017-06-11T10:29:44.283Z,29.88
2017-06-11T10:30:29.754Z,29.81
2017-06-11T10:31:11.326Z,29.84
2017-06-11T10:31:51.892Z,29.73
2017-06-11T10:32:32.415Z,29.61
2017-06-11T10:33:14.179Z,29.5
2017-06-11T10:33:54.858Z,29.5
2017-06-11T10:34:35.426Z,29.5
2017-06-11T10:35:16.980Z,29.45
2017-06-11T10:35:57.532Z,29.39
2017-06-11T10:36:38.084Z,29.35
2017-06-11T10:37:19.682Z,29.36
2017-06-11T10:38:00.309Z,29.34
2017-06-11T10:38:40.833Z,29.44
2017-06-11T10:39:21.357Z,29.39
2017-06-11T10:40:02.990Z,29.36
2017-06-11T10:40:43.625Z,29.36
2017-06-11T10:41:24.141Z,29.36
2017-06-11T10:42:09.756Z,29.49
2017-06-11T10:42:51.343Z,29.47
2017-06-11T10:43:33.906Z,29.47
2017-06-11T10:44:19.385Z,29.47
2017-06-11T10:44:59.919Z,29.45
2017-06-11T10:45:41.497Z,29.49
2017-06-11T10:46:22.150Z,29.47
2017-06-11T10:47:02.805Z,29.47
2017-06-11T10:47:43.352Z,29.49
2017-06-11T10:48:23.853Z,29.49
2017-06-11T10:49:05.416Z,29.57
2017-06-11T10:49:46.027Z,29.54
2017-06-11T10:50:26.542Z,29.56
2017-06-11T10:51:07.185Z,29.6
2017-06-11T10:51:47.805Z,29.6
2017-06-11T10:52:28.329Z,29.61
2017-06-11T10:53:08.909Z,29.57
2017-06-11T10:53:49.555Z,29.6
2017-06-11T10:54:30.063Z,29.65
2017-06-11T10:55:10.661Z,29.51
2017-06-11T10:55:51.307Z,29.53
2017-06-11T10:56:31.835Z,29.53
2017-06-11T10:57:12.554Z,29.45
2017-06-11T10:57:53.982Z,29.44
2017-06-11T10:58:34.497Z,29.47
2017-06-11T10:59:15.102Z,29.47
2017-06-11T10:59:55.686Z,29.5
2017-06-11T11:00:40.894Z,29.54
2017-06-11T11:01:21.411Z,29.42
2017-06-11T11:02:02.002Z,29.5
2017-06-11T11:02:42.702Z,29.59
2017-06-11T11:03:24.328Z,29.71
2017-06-11T11:04:04.852Z,29.78
2017-06-11T11:04:45.455Z,29.97
2017-06-11T11:05:26.008Z,30.02
2017-06-11T11:06:06.545Z,30.1
2017-06-11T11:06:47.091Z,30.08
2017-06-11T11:07:27.658Z,30.23
2017-06-11T11:08:08.249Z,30.27